Time;durP1;ratioP1;P1;durP2;ratioP2;P2;SDS_P1;SDS_P2;PMS_P1;PMS_P2;Temp;Humidity;BMP_temperature;BMP_pressure;BME280_temperature;BME280_humidity;BME280_pressure;Samples;Min_cycle;Max_cycle;Signal;HPM_P1;HPM_P2
2022/03/28 00:01:16;;;;;;;7.22;5.20;;;;;;;14.63;39.16;100558.78;1782351;80;20984;-64
2022/03/28 00:03:43;;;;;;;5.92;4.95;;;;;;;14.62;39.16;100550.93;1806065;79;21595;-63
2022/03/28 00:06:11;;;;;;;6.85;5.17;;;;;;;14.61;39.18;100551.95;1803587;79;21053;-63
2022/03/28 00:08:39;;;;;;;5.97;4.92;;;;;;;14.60;39.15;100548.42;1814601;78;21485;-63
2022/03/28 00:11:07;;;;;;;7.83;5.80;;;;;;;14.59;39.15;100545.44;1813707;78;21006;-64
2022/03/28 00:13:35;;;;;;;7.60;5.42;;;;;;;14.58;39.16;100548.28;1814600;78;21534;-64
2022/03/28 00:16:04;;;;;;;7.20;5.03;;;;;;;14.57;39.18;100544.78;1807439;78;21013;-63
2022/03/28 00:18:32;;;;;;;7.37;6.12;;;;;;;14.55;39.17;100544.09;1782439;80;21010;-64
2022/03/28 00:20:59;;;;;;;8.23;5.45;;;;;;;14.54;39.17;100545.09;1782554;80;21541;-64
2022/03/28 00:23:25;;;;;;;5.90;4.90;;;;;;;14.54;39.17;100543.75;1782499;80;21134;-64
2022/03/28 00:25:53;;;;;;;5.28;4.75;;;;;;;14.53;39.18;100541.59;1782442;79;21463;-64
2022/03/28 00:28:20;;;;;;;6.50;5.60;;;;;;;14.50;39.16;100540.59;1783572;79;21050;-64
2022/03/28 00:30:47;;;;;;;6.70;5.50;;;;;;;14.50;39.18;100537.09;1792239;79;21001;-68
2022/03/28 00:33:14;;;;;;;5.47;4.97;;;;;;;14.49;39.16;100538.94;1793610;79;20973;-63
2022/03/28 00:35:41;;;;;;;6.67;5.33;;;;;;;14.47;39.17;100537.45;1793566;80;21176;-63
2022/03/28 00:38:09;;;;;;;7.00;5.30;;;;;;;14.46;39.17;100544.63;1793541;80;20981;-64
2022/03/28 00:40:35;;;;;;;6.70;5.10;;;;;;;14.46;39.17;100541.13;1794008;80;21481;-65
2022/03/28 00:43:05;;;;;;;7.22;5.70;;;;;;;14.45;39.18;100527.44;1793661;80;21002;-64
2022/03/28 00:45:33;;;;;;;5.95;5.35;;;;;;;14.45;39.19;100534.12;1794591;78;21006;-64
2022/03/28 00:48:00;;;;;;;7.62;5.53;;;;;;;14.43;39.19;100528.95;1793786;80;21093;-63
2022/03/28 00:50:30;;;;;;;6.12;4.85;;;;;;;14.42;39.18;100523.77;1793514;79;21073;-64
2022/03/28 00:52:57;;;;;;;6.95;5.30;;;;;;;14.41;39.18;100522.09;1793725;79;21025;-64
2022/03/28 00:55:24;;;;;;;6.10;5.22;;;;;;;14.40;39.18;100519.92;1793475;80;21041;-63
2022/03/28 00:57:50;;;;;;;6.20;5.22;;;;;;;14.40;39.19;100524.45;1793639;80;21010;-64
2022/03/28 01:00:18;;;;;;;6.40;5.03;;;;;;;14.39;39.17;100522.28;1793831;79;21808;-63
2022/03/28 01:02:44;;;;;;;5.80;4.28;;;;;;;14.38;39.17;100515.77;1816440;78;21028;-64
2022/03/28 01:05:13;;;;;;;6.67;4.97;;;;;;;14.36;39.19;100515.42;1826061;78;20971;-64
2022/03/28 01:07:42;;;;;;;6.65;5.22;;;;;;;14.35;39.18;100511.10;1826055;78;21006;-63
2022/03/28 01:10:10;;;;;;;7.20;5.47;;;;;;;14.34;39.19;100513.44;1826147;78;21050;-63
2022/03/28 01:12:43;;;;;;;5.92;4.78;;;;;;;14.34;39.18;100512.09;1826149;78;21125;-63
2022/03/28 01:15:12;;;;;;;6.80;5.28;;;;;;;14.32;39.17;100514.11;1825996;78;21009;-64
2022/03/28 01:20:29;;;;;;;6.47;4.87;;;;;;;14.31;39.18;100509.79;1825935;78;20985;-63
2022/03/28 01:22:55;;;;;;;7.12;5.70;;;;;;;14.30;39.17;100513.97;1826108;78;21031;-65
2022/03/28 01:25:24;;;;;;;6.15;5.03;;;;;;;14.29;39.20;100514.95;1825977;78;21138;-64
2022/03/28 01:27:54;;;;;;;6.35;5.12;;;;;;;14.27;39.19;100517.80;1825974;78;20994;-63
2022/03/28 01:30:21;;;;;;;5.40;4.25;;;;;;;14.27;39.21;100516.97;1825877;78;21005;-64
2022/03/28 01:32:49;;;;;;;6.95;4.90;;;;;;;14.26;39.19;100512.65;1826149;78;21517;-65
2022/03/28 01:35:36;;;;;;;6.40;5.28;;;;;;;14.24;39.18;100508.81;1822692;78;21009;-64
2022/03/28 01:38:08;;;;;;;5.15;4.05;;;;;;;14.24;39.19;100515.48;1793499;79;21968;-64
2022/03/28 01:40:39;;;;;;;6.05;5.03;;;;;;;14.22;39.20;100510.00;1793707;80;21020;-64
2022/03/28 01:43:07;;;;;;;6.47;5.03;;;;;;;14.21;39.21;100513.66;1775663;80;21612;-64
2022/03/28 01:45:34;;;;;;;5.97;4.55;;;;;;;14.20;39.19;100512.84;1793450;79;21010;-65
2022/03/28 01:48:00;;;;;;;5.97;4.45;;;;;;;14.19;39.21;100513.00;1793570;79;21045;-64
2022/03/28 01:50:28;;;;;;;6.92;4.78;;;;;;;14.18;39.21;100507.31;1793538;80;21228;-63
2022/03/28 01:52:54;;;;;;;6.15;4.53;;;;;;;14.17;39.19;100506.48;1794793;78;21053;-64
2022/03/28 01:55:23;;;;;;;5.47;4.42;;;;;;;14.16;39.21;100496.83;1793453;80;21029;-62
2022/03/28 01:57:50;;;;;;;6.60;4.67;;;;;;;14.15;39.21;100492.47;1793498;79;21033;-64
2022/03/28 02:00:19;;;;;;;5.65;4.30;;;;;;;14.14;39.21;100493.49;1793457;80;21029;-64
2022/03/28 02:02:48;;;;;;;5.28;4.20;;;;;;;14.14;39.19;100492.16;1817611;78;21140;-64
2022/03/28 02:05:15;;;;;;;6.95;5.15;;;;;;;14.13;39.19;100486.47;1825915;78;21073;-63
2022/03/28 02:07:46;;;;;;;7.00;4.65;;;;;;;14.12;39.18;100486.98;1826082;78;21010;-64
2022/03/28 02:10:19;;;;;;;4.70;4.25;;;;;;;14.11;39.19;100489.31;1825252;78;20983;-64
2022/03/28 02:12:46;;;;;;;6.17;4.53;;;;;;;14.11;39.18;100492.48;1826113;78;21521;-63
2022/03/28 02:15:14;;;;;;;6.25;4.72;;;;;;;14.10;39.19;100489.47;1826036;78;21079;-64
2022/03/28 02:17:40;;;;;;;7.33;5.42;;;;;;;14.09;39.18;100481.14;1825931;78;20946;-64
2022/03/28 02:20:09;;;;;;;6.67;5.05;;;;;;;14.08;39.18;100483.47;1826124;78;21061;-64
2022/03/28 02:22:37;;;;;;;6.28;4.83;;;;;;;14.07;39.17;100483.98;1826247;78;21045;-64
2022/03/28 02:25:05;;;;;;;5.65;4.95;;;;;;;14.07;39.18;100490.66;1826114;78;21529;-64
2022/03/28 02:27:32;;;;;;;7.15;4.55;;;;;;;14.05;39.19;100494.02;1824685;78;21225;-63
2022/03/28 02:30:00;;;;;;;7.70;4.58;;;;;;;14.05;39.17;100485.17;1822461;78;20987;-64
2022/03/28 02:32:27;;;;;;;6.85;4.67;;;;;;;14.05;39.19;100488.67;1814477;79;21017;-63
2022/03/28 02:34:53;;;;;;;8.18;5.15;;;;;;;14.03;39.17;100486.67;1814660;79;20998;-64
2022/03/28 02:37:20;;;;;;;6.62;4.78;;;;;;;14.04;39.20;100480.81;1814554;78;20966;-63
2022/03/28 02:39:48;;;;;;;7.05;4.80;;;;;;;14.03;39.17;100481.84;1814440;79;21334;-64
2022/03/28 02:44:57;;;;;;;6.28;4.60;;;;;;;14.04;39.17;100450.95;1881053;76;28588;-64
2022/03/28 02:47:23;;;;;;;5.90;4.83;;;;;;;14.00;39.16;100465.63;1850597;77;20982;-64
2022/03/28 02:49:51;;;;;;;6.30;5.17;;;;;;;13.99;39.17;100463.16;1781498;80;21007;-63
2022/03/28 02:52:18;;;;;;;8.38;5.35;;;;;;;13.99;39.18;100467.17;1781309;80;20982;-63
2022/03/28 02:54:45;;;;;;;8.08;5.40;;;;;;;13.98;39.17;100466.82;1794073;80;21005;-64
2022/03/28 02:57:12;;;;;;;7.70;4.92;;;;;;;13.98;39.18;100464.16;1794082;80;21042;-64
2022/03/28 02:59:39;;;;;;;6.65;4.95;;;;;;;13.95;39.17;100459.48;1794054;80;21033;-63
2022/03/28 03:02:05;;;;;;;6.60;4.67;;;;;;;13.95;39.18;100464.00;1767510;80;22442;-64
2022/03/28 03:04:33;;;;;;;7.90;4.83;;;;;;;13.93;39.18;100452.15;1762670;81;20998;-64
2022/03/28 03:07:00;;;;;;;6.97;5.45;;;;;;;13.93;39.18;100464.17;1762863;81;21026;-64
2022/03/28 03:09:28;;;;;;;6.25;4.87;;;;;;;13.93;39.18;100456.67;1790020;80;20970;-64
2022/03/28 03:11:55;;;;;;;6.50;5.12;;;;;;;13.92;39.19;100454.98;1790297;80;21548;-64
2022/03/28 03:14:23;;;;;;;6.00;5.25;;;;;;;13.91;39.19;100451.49;1790058;80;21021;-64
2022/03/28 03:16:50;;;;;;;9.48;5.05;;;;;;;13.90;39.16;100449.81;1757079;81;21011;-65
2022/03/28 03:19:17;;;;;;;6.67;4.47;;;;;;;13.90;39.17;100451.14;1815949;79;21013;-64
2022/03/28 03:21:45;;;;;;;7.58;5.83;;;;;;;13.89;39.20;100449.50;1817165;79;20998;-64
2022/03/28 03:24:12;;;;;;;6.40;5.00;;;;;;;13.89;39.17;100450.01;1817244;79;21056;-64
2022/03/28 03:26:39;;;;;;;7.08;5.47;;;;;;;13.88;39.16;100442.47;1817223;79;21138;-64
2022/03/28 03:29:05;;;;;;;6.10;4.65;;;;;;;13.87;39.17;100436.82;1817194;79;20994;-64
2022/03/28 03:31:33;;;;;;;6.87;5.20;;;;;;;13.86;39.18;100432.47;1817060;79;21040;-64
2022/03/28 03:34:00;;;;;;;7.10;5.17;;;;;;;13.85;39.17;100428.15;1802768;78;20987;-64
2022/03/28 03:36:27;;;;;;;6.45;4.97;;;;;;;13.84;39.17;100430.48;1790548;78;21045;-65
2022/03/28 03:38:55;;;;;;;5.87;4.78;;;;;;;13.84;39.18;100426.98;1755592;81;22030;-64
2022/03/28 03:41:22;;;;;;;7.40;5.03;;;;;;;13.81;39.18;100437.52;1790162;80;21025;-64
2022/03/28 03:43:49;;;;;;;6.42;4.90;;;;;;;13.81;39.18;100430.84;1793588;79;21081;-65
2022/03/28 03:46:16;;;;;;;6.37;4.58;;;;;;;13.81;39.19;100428.17;1798958;79;20982;-64
2022/03/28 03:48:43;;;;;;;6.37;4.65;;;;;;;13.82;39.19;100424.98;1799121;79;21025;-63
2022/03/28 03:51:10;;;;;;;8.33;5.22;;;;;;;13.80;39.18;100421.15;1799652;79;21243;-64
2022/03/28 03:53:37;;;;;;;7.40;6.08;;;;;;;13.79;39.19;100426.17;1812639;79;21447;-64
2022/03/28 03:56:05;;;;;;;6.53;4.47;;;;;;;13.79;39.19;100431.52;1811868;79;21017;-63
2022/03/28 03:58:31;;;;;;;6.78;5.17;;;;;;;13.78;39.20;100422.34;1811616;79;21549;-64
2022/03/28 04:00:59;;;;;;;6.03;4.75;;;;;;;13.77;39.19;100418.81;1811716;79;21069;-64
2022/03/28 04:03:26;;;;;;;7.65;4.90;;;;;;;13.76;39.19;100413.98;1811742;79;21121;-65
2022/03/28 04:05:52;;;;;;;6.10;4.75;;;;;;;13.75;39.18;100416.34;1811675;79;20987;-63
2022/03/28 04:08:20;;;;;;;6.87;4.75;;;;;;;13.75;39.21;100428.35;1810989;79;21024;-64
2022/03/28 04:10:46;;;;;;;6.92;4.80;;;;;;;13.75;39.20;100422.16;1811819;79;21033;-64
2022/03/28 04:13:14;;;;;;;8.98;4.80;;;;;;;13.74;39.21;100430.67;1811658;79;21084;-63
2022/03/28 04:15:41;;;;;;;6.28;4.67;;;;;;;13.74;39.19;100427.19;1811746;79;21252;-63
2022/03/28 04:18:08;;;;;;;6.03;4.50;;;;;;;13.74;39.18;100424.52;1811753;79;20994;-63
2022/03/28 04:20:36;;;;;;;6.20;4.78;;;;;;;13.72;39.18;100407.33;1811895;79;20994;-64
2022/03/28 04:23:02;;;;;;;5.95;4.62;;;;;;;13.73;39.19;100410.81;1811817;79;21002;-63
2022/03/28 04:25:29;;;;;;;5.40;4.80;;;;;;;13.71;39.19;100404.34;1811073;79;21032;-63
2022/03/28 04:27:57;;;;;;;6.55;4.62;;;;;;;13.72;39.18;100404.65;1811842;79;21010;-64
2022/03/28 04:30:25;;;;;;;6.45;5.28;;;;;;;13.71;39.17;100409.67;1811554;79;21073;-64
2022/03/28 04:32:51;;;;;;;7.03;5.10;;;;;;;13.71;39.17;100406.16;1812034;79;21451;-64
2022/03/28 04:35:22;;;;;;;7.03;4.87;;;;;;;13.71;39.16;100400.81;1811567;79;21312;-64
2022/03/28 04:37:49;;;;;;;6.45;4.85;;;;;;;13.70;39.17;100406.66;1811970;79;21002;-65
2022/03/28 04:40:17;;;;;;;5.97;5.10;;;;;;;13.70;39.17;100401.84;1804037;79;21246;-63
2022/03/28 04:42:45;;;;;;;5.25;4.65;;;;;;;13.70;39.16;100400.50;1789282;79;21032;-65
2022/03/28 04:45:11;;;;;;;6.08;5.03;;;;;;;13.70;39.14;100385.81;1813186;78;21061;-65
2022/03/28 04:47:38;;;;;;;7.53;5.33;;;;;;;13.70;39.14;100371.12;1739406;82;20981;-65
2022/03/28 04:50:06;;;;;;;6.20;4.80;;;;;;;13.70;39.14;100365.79;1769661;81;21127;-64
2022/03/28 04:52:32;;;;;;;6.95;5.47;;;;;;;13.70;39.14;100365.28;1739260;82;21248;-64
2022/03/28 04:54:59;;;;;;;7.67;5.35;;;;;;;13.70;39.12;100373.80;1769468;81;21021;-64
2022/03/28 04:57:25;;;;;;;7.45;5.30;;;;;;;13.70;39.12;100383.97;1739319;81;21045;-64
2022/03/28 04:59:52;;;;;;;6.37;4.92;;;;;;;13.70;39.11;100389.81;1769130;81;21481;-64
2022/03/28 05:02:19;;;;;;;7.97;5.25;;;;;;;13.70;39.12;100387.15;1769876;81;21024;-64
2022/03/28 05:04:47;;;;;;;7.90;5.58;;;;;;;13.69;39.10;100370.27;1769834;81;21983;-64
2022/03/28 05:07:25;;;;;;;6.60;5.75;;;;;;;13.70;39.11;100379.96;1769753;81;21057;-63
2022/03/28 05:09:53;;;;;;;7.55;5.62;;;;;;;13.70;39.10;100360.45;1769288;81;21033;-63
2022/03/28 05:12:22;;;;;;;7.12;5.22;;;;;;;13.69;39.11;100358.77;1769842;81;21021;-64
2022/03/28 05:14:50;;;;;;;6.45;4.90;;;;;;;13.69;39.10;100355.59;1769965;81;21040;-66
2022/03/28 05:17:22;;;;;;;5.78;4.87;;;;;;;13.70;39.10;100359.11;1769296;81;21229;-64
2022/03/28 05:19:49;;;;;;;7.58;5.33;;;;;;;13.69;39.10;100371.61;1768496;81;21026;-64
2022/03/28 05:22:17;;;;;;;6.08;5.10;;;;;;;13.70;39.08;100371.12;1769488;81;21022;-63
2022/03/28 05:24:44;;;;;;;7.72;5.75;;;;;;;13.70;39.08;100365.79;1739282;82;21506;-64
2022/03/28 05:27:11;;;;;;;7.72;5.53;;;;;;;13.70;39.10;100363.12;1769518;81;21076;-63
2022/03/28 05:29:37;;;;;;;6.60;4.60;;;;;;;13.70;39.10;100369.80;1739244;82;21318;-64
2022/03/28 05:32:06;;;;;;;6.62;4.80;;;;;;;13.70;39.07;100363.94;1769559;81;20994;-64
2022/03/28 05:34:33;;;;;;;6.42;5.10;;;;;;;13.70;39.10;100356.45;1739667;81;21045;-64
2022/03/28 05:37:08;;;;;;;7.50;5.47;;;;;;;13.70;39.07;100364.45;1769603;81;21052;-64
2022/03/28 05:39:34;;;;;;;6.72;5.50;;;;;;;13.69;39.10;100362.77;1739013;82;21046;-63
2022/03/28 05:42:01;;;;;;;6.97;5.60;;;;;;;13.69;39.07;100360.92;1777980;80;22247;-65
2022/03/28 05:44:28;;;;;;;7.17;5.45;;;;;;;13.69;39.08;100348.91;1785229;79;20989;-64
2022/03/28 05:46:55;;;;;;;5.97;4.78;;;;;;;13.69;39.07;100342.23;1795438;79;20981;-64
2022/03/28 05:49:24;;;;;;;6.45;4.87;;;;;;;13.69;39.06;100341.41;1799000;79;21477;-64
2022/03/28 05:51:52;;;;;;;6.30;5.12;;;;;;;13.69;39.06;100330.73;1775342;79;21566;-64
2022/03/28 05:54:19;;;;;;;5.72;4.70;;;;;;;13.69;39.05;100320.88;1767348;81;21317;-64
2022/03/28 05:56:46;;;;;;;6.25;5.40;;;;;;;13.70;39.06;100323.06;1708938;84;21052;-64
2022/03/28 05:59:13;;;;;;;7.28;5.10;;;;;;;13.70;39.06;100315.88;1738465;82;21489;-64
2022/03/28 06:01:40;;;;;;;5.95;4.50;;;;;;;13.70;39.03;100318.55;1707482;84;21026;-64
2022/03/28 06:04:07;;;;;;;6.45;4.92;;;;;;;13.71;39.02;100318.04;1738552;82;21020;-64
2022/03/28 06:06:34;;;;;;;7.25;5.08;;;;;;;13.71;39.03;100312.70;1738490;82;21237;-64
2022/03/28 06:09:02;;;;;;;6.72;5.20;;;;;;;13.71;39.02;100304.69;1765572;81;21006;-64
2022/03/28 06:11:30;;;;;;;5.53;4.85;;;;;;;13.72;39.02;100300.52;1706875;84;21050;-63
2022/03/28 06:14:01;;;;;;;6.42;5.17;;;;;;;13.74;39.01;100303.02;1765278;81;21604;-64
2022/03/28 06:16:29;;;;;;;5.75;4.75;;;;;;;13.74;39.00;100302.51;1765211;81;21041;-64
2022/03/28 06:18:56;;;;;;;6.90;4.80;;;;;;;13.76;39.01;100295.66;1765146;81;21157;-64
2022/03/28 06:21:23;;;;;;;6.47;4.75;;;;;;;13.76;38.99;100289.81;1764968;81;21045;-65
2022/03/28 06:23:50;;;;;;;5.92;4.72;;;;;;;13.77;39.00;100281.29;1765331;81;21525;-64
2022/03/28 06:26:17;;;;;;;4.72;4.00;;;;;;;13.78;38.99;100289.64;1739706;82;21045;-64
2022/03/28 06:28:46;;;;;;;5.70;4.72;;;;;;;13.79;38.95;100276.63;1801984;79;21026;-64
2022/03/28 06:31:13;;;;;;;4.92;4.00;;;;;;;13.80;38.94;100274.27;1801893;79;21186;-64
2022/03/28 06:33:39;;;;;;;6.47;4.25;;;;;;;13.81;38.94;100263.08;1801908;79;21034;-64
2022/03/28 06:36:06;;;;;;;5.20;4.17;;;;;;;13.82;38.93;100252.23;1741165;82;21487;-64
2022/03/28 06:38:33;;;;;;;5.75;4.60;;;;;;;13.83;38.91;100261.06;1713726;82;21033;-64
2022/03/28 06:40:59;;;;;;;5.17;4.20;;;;;;;13.84;38.90;100253.39;1739998;81;21037;-64
2022/03/28 06:43:26;;;;;;;5.78;4.42;;;;;;;13.84;38.91;100236.86;1737642;82;21293;-64
2022/03/28 06:45:53;;;;;;;6.08;4.40;;;;;;;13.84;38.90;100234.19;1774561;80;21037;-64
2022/03/28 06:48:20;;;;;;;5.60;4.58;;;;;;;13.85;38.85;100233.19;1793195;80;21021;-63
2022/03/28 06:50:46;;;;;;;4.83;3.75;;;;;;;13.87;38.84;100227.17;1793240;79;21072;-64
2022/03/28 06:53:13;;;;;;;6.22;3.95;;;;;;;13.87;38.84;100213.81;1778960;80;21029;-65
2022/03/28 06:55:41;;;;;;;6.03;3.98;;;;;;;13.88;38.81;100221.31;1761837;81;20990;-65
2022/03/28 06:58:08;;;;;;;5.53;3.67;;;;;;;13.88;38.80;100232.81;1763429;80;21001;-63
2022/03/28 07:00:35;;;;;;;4.42;3.80;;;;;;;13.88;38.79;100236.83;1781529;80;20998;-65
2022/03/28 07:03:02;;;;;;;5.25;4.17;;;;;;;13.90;38.79;100234.80;1781590;80;21479;-64
2022/03/28 07:05:28;;;;;;;5.25;4.10;;;;;;;13.91;38.78;100243.67;1781544;80;21517;-64
2022/03/28 07:07:56;;;;;;;5.28;3.98;;;;;;;13.91;38.73;100223.13;1781528;80;21251;-63
2022/03/28 07:10:22;;;;;;;4.47;3.37;;;;;;;13.91;38.74;100224.47;1781427;80;21003;-64
2022/03/28 07:12:51;;;;;;;4.55;3.42;;;;;;;13.92;38.72;100217.27;1781478;80;21009;-64
2022/03/28 07:15:17;;;;;;;3.95;3.52;;;;;;;13.94;38.71;100215.25;1781662;80;21049;-63
2022/03/28 07:17:55;;;;;;;4.97;3.47;;;;;;;13.95;38.70;100220.94;1781661;80;21038;-64
2022/03/28 07:20:25;;;;;;;4.60;3.27;;;;;;;13.95;38.69;100210.25;1781542;80;21503;-64
2022/03/28 07:22:54;;;;;;;3.85;3.40;;;;;;;13.96;38.66;100204.73;1781487;80;21082;-65
2022/03/28 07:25:22;;;;;;;4.12;3.30;;;;;;;13.97;38.67;100192.20;1781448;80;21062;-65
2022/03/28 07:27:50;;;;;;;4.33;3.62;;;;;;;13.98;38.63;100183.68;1782026;80;21030;-65
2022/03/28 07:30:17;;;;;;;4.87;3.50;;;;;;;13.99;38.61;100187.52;1781542;80;20994;-64
2022/03/28 07:32:44;;;;;;;4.97;3.67;;;;;;;14.00;38.60;100172.31;1785043;80;21199;-64
2022/03/28 07:35:12;;;;;;;3.90;3.40;;;;;;;14.00;38.60;100176.31;1793359;80;21025;-64
2022/03/28 07:37:41;;;;;;;4.20;3.20;;;;;;;14.01;38.59;100172.13;1793643;80;21081;-64
2022/03/28 07:40:09;;;;;;;5.40;3.95;;;;;;;14.02;38.58;100166.28;1789096;80;21481;-63
2022/03/28 07:42:37;;;;;;;4.55;3.37;;;;;;;14.04;38.57;100148.23;1762343;81;21092;-63
2022/03/28 07:45:06;;;;;;;4.83;3.62;;;;;;;14.04;38.54;100150.42;1763737;81;21860;-65
2022/03/28 07:47:34;;;;;;;4.25;3.45;;;;;;;14.06;38.52;100161.75;1766017;81;21069;-66
2022/03/28 07:50:02;;;;;;;4.72;3.70;;;;;;;14.06;38.49;100137.70;1779491;79;21497;-64
2022/03/28 07:52:30;;;;;;;3.77;3.37;;;;;;;14.07;38.49;100130.00;1797538;79;21033;-63
2022/03/28 07:54:57;;;;;;;5.00;3.77;;;;;;;14.09;38.46;100128.48;1797613;79;21528;-63
2022/03/28 07:57:25;;;;;;;5.17;3.08;;;;;;;14.11;38.43;100106.43;1795218;79;21240;-64
2022/03/28 07:59:51;;;;;;;4.78;3.02;;;;;;;14.13;38.43;100119.09;1797605;79;21036;-64
2022/03/28 08:02:18;;;;;;;4.87;3.50;;;;;;;14.15;38.41;100115.73;1797469;79;21029;-64
2022/03/28 08:04:45;;;;;;;4.60;3.02;;;;;;;14.17;38.42;100099.02;1797443;79;21049;-64
2022/03/28 08:07:12;;;;;;;3.80;3.12;;;;;;;14.20;38.42;100085.30;1797066;79;21046;-64
2022/03/28 08:09:39;;;;;;;3.15;2.75;;;;;;;14.22;38.38;100119.34;1773710;80;21368;-67
2022/03/28 08:12:07;;;;;;;4.55;3.45;;;;;;;14.25;38.36;100090.91;1805466;79;20980;-63
2022/03/28 08:14:34;;;;;;;8.98;3.47;;;;;;;14.27;38.36;100081.37;1773631;80;21010;-64
2022/03/28 08:17:01;;;;;;;3.52;3.00;;;;;;;14.29;38.33;100061.49;1805522;79;21643;-64
2022/03/28 08:19:27;;;;;;;3.45;3.00;;;;;;;14.31;38.32;100056.79;1773600;80;21001;-64
2022/03/28 08:21:55;;;;;;;3.45;3.00;;;;;;;14.34;38.31;100058.25;1805534;79;21002;-65
2022/03/28 08:24:22;;;;;;;3.55;3.15;;;;;;;14.36;38.30;100054.37;1774266;80;21490;-63
2022/03/28 08:26:49;;;;;;;3.70;2.75;;;;;;;14.39;38.29;100033.63;1805843;79;21033;-64
2022/03/28 08:29:17;;;;;;;3.83;2.77;;;;;;;14.42;38.28;100034.61;1774152;80;21001;-65
2022/03/28 08:31:44;;;;;;;3.45;3.08;;;;;;;14.44;38.28;100044.09;1805861;79;21005;-64
2022/03/28 08:34:10;;;;;;;4.15;2.95;;;;;;;14.48;38.25;100024.50;1774253;80;21250;-65
2022/03/28 08:36:37;;;;;;;3.95;2.87;;;;;;;14.50;38.24;100017.13;1805562;79;21033;-64
2022/03/28 08:39:05;;;;;;;4.25;3.08;;;;;;;14.54;38.27;100007.70;1774306;80;21029;-63
2022/03/28 08:41:33;;;;;;;6.10;3.10;;;;;;;14.57;38.28;100015.40;1802807;79;21067;-64
2022/03/28 08:44:00;;;;;;;5.53;3.47;;;;;;;14.60;38.29;99998.97;1773575;79;21600;-63
2022/03/28 08:46:30;;;;;;;3.52;3.12;;;;;;;14.65;38.34;99993.08;1800930;79;22169;-64
2022/03/28 08:48:58;;;;;;;2.95;2.62;;;;;;;14.68;38.33;99972.14;1800001;79;21017;-63
2022/03/28 08:51:27;;;;;;;3.90;3.10;;;;;;;14.72;38.34;99965.91;1799944;79;21029;-64
2022/03/28 08:53:54;;;;;;;4.47;3.40;;;;;;;14.76;38.36;99973.86;1800011;79;21009;-64
2022/03/28 08:56:22;;;;;;;5.40;3.60;;;;;;;14.81;38.41;99962.58;1800072;79;21053;-64
2022/03/28 08:58:48;;;;;;;3.72;2.75;;;;;;;14.85;38.39;99954.50;1777158;79;21184;-63
2022/03/28 09:01:15;;;;;;;6.87;3.70;;;;;;;14.90;38.42;99958.77;1768380;81;21532;-64
2022/03/28 09:03:48;;;;;;;3.62;3.08;;;;;;;14.95;38.46;99983.11;1776931;79;21061;-64
2022/03/28 09:06:34;;;;;;;4.25;3.67;;;;;;;15.00;38.42;99959.79;1794851;79;21018;-64
2022/03/28 09:09:16;;;;;;;4.17;3.30;;;;;;;15.04;38.43;99967.23;1792088;79;21014;-64
2022/03/28 09:11:53;;;;;;;5.12;3.60;;;;;;;15.09;38.40;99943.41;1800131;79;21132;-65
2022/03/28 09:14:34;;;;;;;3.87;3.35;;;;;;;15.14;38.43;99939.66;1799583;79;21095;-65
2022/03/28 09:17:09;;;;;;;4.08;3.45;;;;;;;15.18;38.43;99972.19;1800972;79;21037;-64
2022/03/28 09:19:57;;;;;;;5.35;3.35;;;;;;;15.24;38.45;99935.80;1800628;79;21012;-63
2022/03/28 09:22:32;;;;;;;4.40;3.62;;;;;;;15.29;38.42;99944.09;1801209;79;21044;-64
2022/03/28 09:25:03;;;;;;;4.33;3.55;;;;;;;15.34;38.42;99926.94;1799492;79;21560;-65
2022/03/28 09:27:32;;;;;;;4.20;3.42;;;;;;;15.40;38.50;99934.70;1799465;79;21517;-64
2022/03/28 09:30:08;;;;;;;3.80;3.37;;;;;;;15.45;38.44;99915.70;1800544;79;21052;-64
2022/03/28 09:32:39;;;;;;;4.70;3.55;;;;;;;15.51;38.54;99887.29;1800138;79;21036;-64
2022/03/28 09:35:22;;;;;;;4.60;3.15;;;;;;;15.58;38.52;99879.31;1799514;79;21063;-64
2022/03/28 09:38:08;;;;;;;3.55;3.25;;;;;;;15.63;38.53;99892.95;1800845;79;21778;-63
2022/03/28 09:40:43;;;;;;;3.62;3.10;;;;;;;15.69;38.57;99884.12;1800631;79;21469;-64
2022/03/28 09:43:24;;;;;;;4.05;3.00;;;;;;;15.75;38.59;99855.23;1799999;79;21021;-63
2022/03/28 09:45:56;;;;;;;3.35;2.90;;;;;;;15.82;38.53;99860.11;1794956;79;21006;-64
2022/03/28 09:48:26;;;;;;;3.67;3.12;;;;;;;15.89;38.53;99848.07;1788089;79;21554;-64
2022/03/28 09:51:01;;;;;;;4.35;2.98;;;;;;;15.96;38.55;99842.75;1786866;80;21107;-63
2022/03/28 09:53:35;;;;;;;3.72;3.22;;;;;;;16.03;38.46;99848.94;1786827;80;21022;-63
2022/03/28 09:56:06;;;;;;;;;;;;;;;16.10;38.41;99837.73;1788734;80;21002;-68
2022/03/28 09:58:47;;;;;;;3.15;2.85;;;;;;;16.17;38.31;99823.84;1786872;80;20459;-69
2022/03/28 10:01:35;;;;;;;3.62;2.65;;;;;;;16.24;38.22;99819.30;1786791;80;20995;-64
2022/03/28 10:04:08;;;;;;;3.35;2.70;;;;;;;16.31;38.17;99813.97;1785366;80;21271;-65
2022/03/28 10:06:41;;;;;;;5.37;3.35;;;;;;;16.39;38.12;99839.24;1774852;79;21073;-63
2022/03/28 10:09:07;;;;;;;4.60;3.62;;;;;;;16.47;38.11;99829.66;1777056;79;21006;-63
2022/03/28 10:11:36;;;;;;;4.75;2.98;;;;;;;16.55;38.00;99812.54;1779398;79;21474;-64
2022/03/28 10:14:03;;;;;;;3.35;2.72;;;;;;;16.63;38.03;99814.20;1767104;81;21607;-64
2022/03/28 10:16:29;;;;;;;4.58;3.00;;;;;;;16.70;38.14;99825.77;1766781;81;22115;-63
2022/03/28 10:18:56;;;;;;;3.62;2.72;;;;;;;16.78;38.22;99822.05;1766756;81;21546;-64
2022/03/28 10:21:31;;;;;;;4.22;3.02;;;;;;;16.86;38.27;99793.69;1766758;81;21521;-64
2022/03/28 10:24:05;;;;;;;3.80;3.05;;;;;;;16.93;38.23;99806.59;1782871;79;20994;-64
2022/03/28 10:26:33;;;;;;;;;;;;;;;17.01;38.17;99790.27;1788368;80;21021;-63
2022/03/28 10:29:17;;;;;;;3.50;2.67;;;;;;;17.09;38.14;99762.38;1785845;80;20631;-64
2022/03/28 10:32:02;;;;;;;5.45;3.33;;;;;;;17.16;38.11;99760.52;1785967;80;21487;-64
2022/03/28 10:34:53;;;;;;;5.03;2.87;;;;;;;17.25;38.06;99754.41;1785693;80;21010;-63
2022/03/28 10:37:47;;;;;;;4.30;2.87;;;;;;;17.34;37.97;99759.02;1785677;80;21050;-64
2022/03/28 10:40:28;;;;;;;3.70;3.02;;;;;;;17.43;37.88;99751.03;1788547;79;20978;-64
2022/03/28 10:43:12;;;;;;;3.77;3.02;;;;;;;17.52;37.76;99731.46;1798890;79;21149;-64
2022/03/28 10:45:49;;;;;;;3.15;2.85;;;;;;;17.61;37.70;99751.15;1798002;79;21029;-64
2022/03/28 10:48:17;;;;;;;3.65;2.85;;;;;;;17.69;37.63;99710.63;1796320;79;21512;-64
2022/03/28 10:50:50;;;;;;;3.75;2.87;;;;;;;17.78;37.59;99715.21;1796361;79;21533;-63
2022/03/28 10:53:29;;;;;;;3.20;2.60;;;;;;;17.86;37.54;99704.23;1796480;79;21486;-64
2022/03/28 10:56:03;;;;;;;3.85;2.62;;;;;;;17.95;37.47;99696.74;1796325;79;21145;-63
2022/03/28 10:58:39;;;;;;;2.95;2.40;;;;;;;18.04;37.43;99694.59;1764795;81;21033;-64
2022/03/28 11:01:15;;;;;;;4.62;2.95;;;;;;;18.13;37.36;99685.76;1764877;81;21036;-64
2022/03/28 11:03:52;;;;;;;3.33;2.87;;;;;;;18.22;37.30;99674.52;1764935;81;21046;-64
2022/03/28 11:06:38;;;;;;;4.25;3.45;;;;;;;18.30;37.25;99680.13;1765027;81;20997;-63
2022/03/28 11:09:05;;;;;;;3.77;2.62;;;;;;;18.39;37.17;99680.69;1765071;81;21216;-63
2022/03/28 11:11:33;;;;;;;2.95;2.62;;;;;;;18.50;37.16;99662.45;1764892;81;21029;-64
2022/03/28 11:14:09;;;;;;;3.70;2.42;;;;;;;18.57;37.16;99687.97;1747405;79;21057;-64
2022/03/28 11:16:41;;;;;;;2.90;2.33;;;;;;;18.67;37.13;99665.40;1795546;79;21033;-64
2022/03/28 11:19:32;;;;;;;3.12;2.52;;;;;;;18.75;37.10;99639.53;1796618;79;21162;-63
2022/03/28 11:22:10;;;;;;;2.60;2.17;;;;;;;18.85;37.01;99633.66;1796467;79;21239;-64
2022/03/28 11:24:56;;;;;;;3.08;2.27;;;;;;;18.96;37.00;99653.09;1796443;79;21006;-64
2022/03/28 11:27:31;;;;;;;3.58;2.52;;;;;;;19.06;36.89;99628.33;1796425;79;21045;-64
2022/03/28 11:30:10;;;;;;;3.05;2.40;;;;;;;19.16;36.85;99625.11;1795524;79;20986;-64
2022/03/28 11:32:37;;;;;;;2.92;2.60;;;;;;;19.25;36.82;99627.78;1765021;81;21987;-64
2022/03/28 11:35:05;;;;;;;3.47;2.72;;;;;;;19.34;36.78;99618.88;1764986;81;21150;-64
2022/03/28 11:37:31;;;;;;;3.25;2.40;;;;;;;19.43;36.68;99627.75;1764882;81;21036;-63
2022/03/28 11:40:08;;;;;;;2.92;2.45;;;;;;;19.51;36.60;99619.03;1777984;79;20989;-63
2022/03/28 11:42:36;;;;;;;3.00;2.33;;;;;;;19.60;36.53;99619.00;1796386;79;21025;-64